Pablo Herrero

Chief Scout - Gijón
16 Sep 2027
Thursday
Process

Personality

Adaptability (1) Ambition (3) Controversy (3) Loyalty (9) Pressure (5) Professionalism (13) Sportsmanship (18) Temperament (18)

Profile

Coaching Style Democratic
License National A
Determination 11
Man Management 6
Motivating 8
Discipline 7
Job Satisfaction
100%
Fatigue
0%
Role Chief Scout
Wage 43.0K p/w
Contract 14.03.2028

Performance

Behaviour Good
Training Effectiveness
33%
Player Development
35%
Injury Prevention
65%
Tactical Implementation
20%

Recent Events

Attended a recruitment meeting now
Recommended a transfer target now
Recommended a transfer target now
Attended a recruitment meeting now
Recommended a transfer target now
Recommended a transfer target 7d ago
Attended a recruitment meeting 7d ago
Recommended a transfer target 7d ago

Currently Monitoring

206
Player Club Status Ability Confidence Watched Last Observed Latest Vote
Jokin Gabilondo Zaragoza Report Ready 112 / 104 76% 1 16.08.2027 -
Christos Mouzakitis Hull City Active 134 / 137 40% 5 02.08.2027 -
Caleb Yirenkyi Coventry City Active 136 / 155 40% 4 02.08.2027 -
Josh Smith Accrington Stanley Active 88 / 78 40% 2 02.08.2027 -
Ernie Weaver AFC Wimbledon Active 109 / 112 40% 4 26.07.2027 -
Jan Bürger Gillingham Active 115 / 123 40% 1 26.07.2027 -
Samuel Lucero Defensa y Justicia Active 115 / 106 40% 2 19.07.2027 -
Davide Bartesaghi AC Milan Active 135 / 136 40% 2 19.07.2027 -
Kazunari Kita Real Sociedad Active 101 / 106 40% 1 19.07.2027 -
Jofre Torrents Ajax Active 131 / 141 40% 2 29.06.2027 -
Bernardo Lima Porto Active 99 / 110 40% 1 29.06.2027 -
João Teixeira Porto Active 111 / 127 40% 1 29.06.2027 -
Christ Inao Oulaï Fiorentina Active 132 / 147 40% 4 14.06.2027 -
Bernard Sulemana Hasaacas Active 95 / 78 40% 2 02.06.2027 -
Bitello SC Freiburg Negotiating 135 / 135 68% 1 01.06.2027 -
Facundo Torres LOSC Lille Report Ready 134 / 134 67% 1 01.06.2027 -
Oscar Schwartau Norwich City Active 121 / 125 40% 4 30.05.2027 -
Yussif Saidu Zaragoza Active 129 / 135 40% 3 30.05.2027 -
Ben Gannon Doak Bournemouth Active 141 / 151 40% 1 30.05.2027 -
Lander Astiazarán Real Sociedad Active 105 / 120 67% 4 29.05.2027 -
Matías Gómez Granada Active 114 / 121 40% 7 29.05.2027 -
Yusi Alavés Active 125 / 121 40% 8 27.05.2027 -
Pablo García Racing Santander Active 124 / 136 40% 2 27.05.2027 -
Fidel Ambríz Monterrey Active 128 / 115 40% 5 27.05.2027 -
Ethan Galbraith Swansea City Active 138 / 129 40% 4 27.05.2027 -
Isma Ruiz Córdoba Active 135 / 124 40% 1 27.05.2027 -
Rayan Bournemouth Active 137 / 136 40% 2 24.05.2027 -
Adrià Altimira Deportivo La Coruña Active 129 / 138 40% 3 24.05.2027 -
Daijiro Chirino Almería Active 135 / 134 40% 2 24.05.2027 -
Marvin Park Las Palmas Active 133 / 122 40% 2 22.05.2027 -
Noah Sadiki Sunderland Active 141 / 157 40% 1 22.05.2027 -
Kevin Vazquez Cruz Azul Active 138 / 121 40% 14 21.05.2027 -
Keagan Tau Ajax Cape Town Active 91 / 119 40% 2 21.05.2027 -
Shea Charles Southampton Active 137 / 147 40% 6 21.05.2027 -
Percy Jali Free State Stars Active 98 / 116 40% 2 21.05.2027 -
Toni Tamarit Alverca Active 121 / 121 40% 1 21.05.2027 -
Williams Manyama SuperSport United Active 119 / 108 40% 3 20.05.2027 -
Jesús Orozco Chiquete Cruz Azul Active 129 / 135 40% 5 19.05.2027 -
Max Bird Birmingham Active 138 / 123 40% 2 19.05.2027 -
Florentino Luís Ipswich Town Active 138 / 152 40% 4 19.05.2027 -
Richard Ledezma Guadalajara Active 140 / 137 40% 6 18.05.2027 -
Riley Owen Trento Active 103 / 107 40% 2 18.05.2027 -
Alejandro Francés Girona Active 130 / 137 40% 1 18.05.2027 -
Ousmane Diomande Nottingham Forest Active 156 / 156 40% 4 17.05.2027 -
Derry Murkin Derby County Active 129 / 127 40% 1 17.05.2027 -
Pol Lozano Espanyol Active 135 / 130 40% 6 16.05.2027 -
Callum Doyle Wrexham Active 132 / 138 40% 2 16.05.2027 -
Adrien Truffert Bournemouth Active 155 / 151 40% 2 16.05.2027 -
Moussa Diakité Cádiz Active 125 / 125 40% 2 15.05.2027 -
Omar El Hilali Espanyol Active 142 / 144 40% 6 15.05.2027 -
Welington Southampton Active 138 / 136 40% 5 14.05.2027 -
Joel McGregor Swindon Town Active 87 / 105 40% 3 14.05.2027 -
Bojan Kovačević Cádiz Active 124 / 130 40% 3 13.05.2027 -
Urko González Espanyol Active 138 / 141 40% 4 12.05.2027 -
Álex Lizancos Burgos Active 125 / 139 40% 3 12.05.2027 -
Rodrigo Mora AS Roma Active 133 / 134 40% 2 12.05.2027 -
Endrick Real Madrid Active 145 / 153 40% 1 12.05.2027 -
Ibrahim Maza Bayer Leverkusen Active 147 / 138 40% 3 11.05.2027 -
José Pachuca Puebla Active 108 / 105 40% 1 11.05.2027 -
Fran García Betis Active 146 / 140 40% 5 10.05.2027 -
Alessandro Buongiorno Sassuolo Active 159 / 149 40% 1 10.05.2027 -
Ryan Sessegnon Fulham Active 141 / 149 40% 6 09.05.2027 -
Pablo Ramón Racing Santander Active 131 / 140 40% 3 07.05.2027 -
Jon Garro Real Sociedad Active 83 / 108 67% 3 07.05.2027 -
Kristoffer Lund Birmingham Active 125 / 122 40% 1 07.05.2027 -
Leandro Martins Benfica Active 88 / 96 40% 1 07.05.2027 -
Adam Wharton Crystal Palace Active 153 / 151 40% 3 06.05.2027 -
Jesús Rodríguez Como Active 149 / 151 40% 1 05.05.2027 -
Josh King Chelsea Active 137 / 157 40% 1 03.05.2027 -
Ilaix Moriba Celta Active 145 / 141 40% 6 02.05.2027 -
Izan Merino Málaga Active 121 / 133 40% 4 02.05.2027 -
Milan van Ewijk Mansfield Town Active 127 / 119 40% 1 01.05.2027 -
Brian Rodríguez Club America Active 135 / 123 40% 1 29.04.2027 -
Jason Knight Bristol City Active 133 / 133 40% 1 29.04.2027 -
Eduardo Dos Santos Veracruz Active 126 / 137 40% 2 26.04.2027 -
Diego Pampín Granada Active 118 / 135 40% 2 26.04.2027 -
Quinten Timber Crystal Palace Active 150 / 157 40% 3 25.04.2027 -
Harry Clarke Preston Active 125 / 137 40% 1 23.04.2027 -
Javi Rodríguez Celta Active 154 / 165 40% 2 22.04.2027 -
Darlin Yongwa Norwich City Active 123 / 128 40% 1 20.04.2027 -
Othmane Maamma Watford Active 132 / 120 40% 3 19.04.2027 -
Ez Abde Girona Active 152 / 148 40% 1 19.04.2027 -
Mikkel Damsgaard Brentford Active 146 / 145 40% 1 19.04.2027 -
Olívio Tomé Benfica Active 114 / 111 40% 1 19.04.2027 -
Tani Oluwaseyi Villarreal Active 139 / 152 40% 6 16.04.2027 -
Diego Lainez Tigres Active 138 / 134 40% 1 16.04.2027 -
Víctor Guzmán Monterrey Active 139 / 148 40% 3 15.04.2027 -
Pedro Vite Pumas UNAM Active 117 / 140 40% 3 09.04.2027 -
Warren Zaïre-Emery Paris Saint-Germain Active 159 / 151 40% 5 08.04.2027 -
Aarón Mejía Tijuana Active 123 / 129 40% 5 08.04.2027 -
Martim Cunha Porto Active 96 / 114 40% 1 08.04.2027 -
Ramón Juárez Club America Active 134 / 141 40% 4 07.04.2027 -
Zane Albarus Cambridge United Active 94 / 100 40% 1 05.04.2027 -
Georginio Rutter Brighton Active 145 / 155 40% 3 04.04.2027 -
Ozziel Herrera Tigres Active 135 / 129 40% 11 04.04.2027 -
Emi Rodriguez Leon Active 117 / 124 40% 1 04.04.2027 -
Yehor Yarmoliuk Brentford Active 147 / 149 40% 3 01.04.2027 -
Jayden Luker Barnet Active 96 / 98 40% 1 30.03.2027 -
Lovro Zvonarek Estrela da Amadora Active 120 / 121 40% 1 29.03.2027 -
Tiago Santos LOSC Lille Active 148 / 131 40% 1 23.03.2027 -
Jackson Porozo Tijuana Active 126 / 132 40% 1 21.03.2027 -
Rômulo Tigres Active 123 / 112 40% 2 19.03.2027 -
Rocco Vata Watford Active 116 / 120 40% 1 19.03.2027 -
Jan Virgili Club Brugge Active 134 / 131 40% 5 17.03.2027 -
Tiago Freitas Benfica Active 108 / 108 40% 1 16.03.2027 -
Jonás Luna Santa Clara Active 118 / 126 40% 5 13.03.2027 -
Pablo Monroy Pumas UNAM Active 124 / 135 40% 2 11.03.2027 -
Aaron Hickey Brentford Active 140 / 133 40% 1 11.03.2027 -
Santiago Simón Toluca Active 128 / 132 40% 1 10.03.2027 -
Samir El Mourabet RC Strasbourg Active 121 / 122 40% 1 10.03.2027 -
Antoni Milambo Brentford Active 139 / 135 40% 1 10.03.2027 -
James Dornelly Peterborough United Active 98 / 104 40% 1 10.03.2027 -
Mandla Erasmus SuperSport United Active 128 / 125 40% 3 06.03.2027 -
Matt O'Riley Brighton Active 151 / 133 40% 1 05.03.2027 -
Efraín Álvarez Guadalajara Active 130 / 140 40% 5 04.03.2027 -
Tomás González Piast Active 118 / 130 40% 7 04.03.2027 -
Roberto Fernández Braga Active 138 / 145 40% 2 04.03.2027 Needs More Info
Marezi Portsmouth Active 119 / 120 40% 1 03.03.2027 -
Yousef Salech Cardiff City Active 125 / 137 40% 4 01.03.2027 -
Mandla Mahlangu Ajax Cape Town Active 102 / 86 40% 2 01.03.2027 -
Thiago Brentford Active 153 / 157 40% 4 28.02.2027 -
Andrés Martín Racing Santander Active 132 / 148 40% 8 26.02.2027 -
Luis Vázquez Birmingham Active 127 / 118 40% 3 26.02.2027 -
Senny Mayulu Paris Saint-Germain Active 139 / 141 40% 1 26.02.2027 -
Adrián Niño Málaga Active 126 / 124 40% 2 24.02.2027 -
Duk Atlas Active 123 / 124 40% 6 23.02.2027 -
Kwame Opoku Asante Kotoko Active 110 / 99 40% 2 23.02.2027 -
Abel Ruiz Girona Active 144 / 149 40% 1 22.02.2027 -
Malick Fofana Sunderland Active 140 / 150 40% 3 21.02.2027 -
Bamba Dieng Crvena Zvezda Active 126 / 121 40% 2 21.02.2027 -
Fotis Ioannidis Rio Ave Active 135 / 138 40% 3 21.02.2027 Monitor
Aune Heggebø West Bromwich Albion Active 132 / 122 40% 2 18.02.2027 -
Razvan Balasa Crvena Zvezda Active 154 / 125 40% 2 14.02.2027 -
Dango Ouattara Brentford Active 143 / 143 40% 3 12.02.2027 -
Adnan Courtois KV Oostende Active 133 / 126 40% 4 10.02.2027 -
Toni Fruk KV Mechelen Active 136 / 125 89% 3 10.02.2027 Strong Approve
Joaquin Seys Club Brugge Active 130 / 134 40% 1 10.02.2027 -
Etiosa Ighodaro Kaizer Chiefs Active 122 / 123 40% 1 08.02.2027 -
Diego López Rayo Vallecano Active 143 / 145 40% 1 07.02.2027 -
Morgan Whittaker Middlesbrough Active 136 / 135 40% 2 05.02.2027 -
Alejandro Gómez Tijuana Active 116 / 123 40% 1 05.02.2027 -
Jesús Vázquez Valencia Active 139 / 121 40% 1 05.02.2027 -
Israel Reyes CSKA Moscow Active 146 / 133 40% 2 04.02.2027 -
Ilay Camara Anderlecht Active 135 / 138 40% 1 03.02.2027 -
Juan Cruz Martins Jihlava Active 105 / 102 40% 2 01.02.2027 -
Rubén Sobrino Cultural Leonesa Active 116 / 130 76% 1 25.01.2027 -
Tom Cannon Sheffield United Active 123 / 130 40% 1 11.01.2027 -
David Cordova Atletico Venezuela Active 91 / 78 40% 2 06.01.2027 -
Konstantin Tyukavin Inter Negotiating 132 / 133 66% 1 01.01.2027 -
Nicolás Fernández Mercau Shakhtar Active 134 / 134 67% 1 01.01.2027 -
Lisandro Tejada San Martín SJ Active 83 / 96 40% 1 01.01.2027 -
Rayane Bounida Ajax Active 128 / 140 40% 1 30.12.2026 -
Germán Valera Elche Active 133 / 149 40% 3 28.12.2026 -
Themba Ngcobo SuperSport United Active 128 / 131 40% 4 27.12.2026 -
Ferran Jutglà Celta Active 137 / 149 40% 4 26.12.2026 -
Mfundo Vilakazi Kaizer Chiefs Active 104 / 110 40% 1 25.12.2026 -
Hakim Sulemana Medeama Active 103 / 121 40% 1 25.12.2026 -
Joaquín Panichelli Le Havre AC Active 142 / 146 40% 1 20.12.2026 -
Giacomo Raspadori Atalanta Active 154 / 157 40% 2 18.12.2026 -
Diego Gaitán Maipú Active 103 / 129 40% 1 13.12.2026 -
Ramiro Ruiz Rodríguez Atlético Tucumán Active 125 / 108 40% 5 10.12.2026 -
Jonathan Dubasin Osasuna Active 139 / 134 40% 2 10.12.2026 -
Tommy Conway Middlesbrough Active 126 / 135 40% 1 08.12.2026 -
Ruben van Bommel Ferencvaros Active 130 / 132 40% 1 06.12.2026 -
Agustín Módica Gimnasia y Esgrima Active 119 / 114 40% 1 03.12.2026 -
Alexander Díaz Deportivo Riestra Active 125 / 110 40% 3 02.12.2026 -
Urko Izeta Cádiz Active 126 / 116 40% 2 02.12.2026 -
Alexis Cuello San Lorenzo Active 126 / 143 40% 4 28.11.2026 -
Wilson Isidor Sunderland Active 140 / 135 40% 1 27.11.2026 -
Tyler Adams Bournemouth Active 147 / 160 40% 1 26.11.2026 -
Manuel Ospina Cortulua Active 120 / 142 40% 2 24.11.2026 -
Ethan Williams Peterborough United Active 113 / 122 40% 2 06.11.2026 -
Patrick Preciado Deportivo Pasto Active 104 / 115 40% 1 06.11.2026 -
Nicolò Tresoldi Club Brugge Active 128 / 129 40% 1 04.11.2026 -
Lorent Tolaj Plymouth Argyle Active 120 / 118 40% 1 03.11.2026 -
Arda Güler Real Madrid Active 152 / 160 40% 1 03.11.2026 -
Santiago Sala Güemes Active 102 / 121 40% 4 01.11.2026 -
Juan Cruz Meza River Plate Active 99 / 128 40% 1 01.11.2026 -
Mauro Valiente Estudiantes Active 119 / 133 40% 1 28.10.2026 -
Tristan Degreef Anderlecht Active 129 / 127 40% 1 28.10.2026 -
Mateo Garavito Deportivo Pasto Active 124 / 114 40% 2 22.10.2026 -
Jermein Peña Junior Active 126 / 131 40% 1 22.10.2026 -
José Castillo Guadalajara Active 113 / 117 40% 1 21.10.2026 -
José Ortiz Atletico Bucaramanga Active 114 / 113 40% 1 19.10.2026 -
Gavi Barcelona Active 161 / 151 40% 1 19.10.2026 -
Eric Meza Estudiantes Active 131 / 126 40% 1 19.10.2026 -
Juan Manuel Zapata Envigado Active 123 / 99 40% 2 18.10.2026 -
Leandro Lozano Boca Juniors Active 133 / 119 40% 1 18.10.2026 -
Omar Campos Cruz Azul Active 117 / 115 40% 1 18.10.2026 -
Nicolás Cordero Aldosivi Active 112 / 124 40% 2 17.10.2026 -
Juan Rocca Gimnasia y Tiro Active 111 / 99 40% 1 17.10.2026 -
César Ibáñez Huracán Active 125 / 127 40% 1 16.10.2026 -
Luca Martínez Dupuy Godoy Cruz Active 121 / 113 40% 1 14.10.2026 -
Bénie Traoré New York City Active 131 / 138 40% 2 13.10.2026 -
Martín Garay Tigre Active 111 / 114 40% 1 11.10.2026 -
Adalberto Carrasquilla Pumas UNAM Active 123 / 127 40% 1 10.10.2026 -
Matías Sosa Arsenal Active 110 / 107 40% 1 08.10.2026 -
Rafael Navarro St. Louis CITY SC Active 126 / 124 40% 1 08.10.2026 -
Oscar Salomón Newell's Old Boys Active 122 / 142 40% 1 07.10.2026 -
Nicolás Fonseca Leon Active 122 / 134 40% 1 07.10.2026 -
Sebastián Cocimano Nueva Chicago Active 122 / 106 40% 1 06.10.2026 -
Luis Montilla San Telmo Active 76 / 102 40% 2 31.08.2026 -
Iván Alejo Valladolid Active 121 / 125 76% 1 31.08.2026 Approve
Federico Bonini Almería Active 126 / 125 76% 1 17.08.2026 Approve
Agustín Olavarría Colon Active 81 / 85 40% 1 10.08.2026 -
Salvi Sánchez Active 125 / 124 76% 1 03.08.2026 Approve